createdAt,value
2023-01-29T00:00:21.981Z,-2.12
2023-01-29T00:02:48.781Z,-2.06
2023-01-29T00:05:27.066Z,-2.02
2023-01-29T00:07:54.306Z,-1.95
2023-01-29T00:10:21.040Z,-2.22
2023-01-29T00:12:47.611Z,-2.23
2023-01-29T00:15:14.163Z,-2.09
2023-01-29T00:17:40.709Z,-2.04
2023-01-29T00:20:07.595Z,-2.00
2023-01-29T00:22:34.119Z,-2.03
2023-01-29T00:25:00.687Z,-2.13
2023-01-29T00:27:27.253Z,-2.20
2023-01-29T00:30:13.097Z,-2.09
2023-01-29T00:32:40.745Z,-2.06
2023-01-29T00:35:08.759Z,-2.31
2023-01-29T00:37:35.387Z,-2.34
2023-01-29T00:40:02.385Z,-2.18
2023-01-29T00:42:47.639Z,-2.32
2023-01-29T00:45:14.302Z,-2.36
2023-01-29T00:47:40.945Z,-2.36
2023-01-29T00:50:10.529Z,-2.22
2023-01-29T00:52:37.791Z,-2.41
2023-01-29T00:55:06.027Z,-2.44
2023-01-29T00:57:34.304Z,-2.25
2023-01-29T01:00:01.672Z,-2.33
2023-01-29T01:02:47.397Z,-2.33
2023-01-29T01:05:19.750Z,-2.14
2023-01-29T01:07:51.530Z,-2.17
2023-01-29T01:10:33.111Z,-2.37
2023-01-29T01:13:02.815Z,-2.27
2023-01-29T01:15:40.022Z,-2.37
2023-01-29T01:18:06.812Z,-2.38
2023-01-29T01:20:35.495Z,-2.44
2023-01-29T01:23:02.871Z,-2.40
2023-01-29T01:25:29.421Z,-2.31
2023-01-29T01:30:25.458Z,-2.26
2023-01-29T01:32:52.783Z,-2.45
2023-01-29T01:35:19.445Z,-2.47
2023-01-29T01:37:46.032Z,-2.21
2023-01-29T01:40:21.375Z,-2.30
2023-01-29T01:42:49.894Z,-2.32
2023-01-29T01:45:31.973Z,-2.11
2023-01-29T01:48:18.832Z,-2.17
2023-01-29T01:50:49.917Z,-2.37
2023-01-29T01:53:21.755Z,-2.39
2023-01-29T01:55:52.691Z,-2.26
2023-01-29T01:58:26.308Z,-2.23
2023-01-29T02:00:53.403Z,-2.18
2023-01-29T02:03:41.259Z,-2.16
2023-01-29T02:06:28.426Z,-2.23
2023-01-29T02:09:18.574Z,-2.14
2023-01-29T02:11:45.222Z,-2.30
2023-01-29T02:14:12.323Z,-2.22
2023-01-29T02:16:39.344Z,-2.26
2023-01-29T02:19:16.358Z,-2.37
2023-01-29T02:22:12.699Z,-2.44
2023-01-29T02:25:09.676Z,-2.31
2023-01-29T02:27:48.177Z,-2.45
2023-01-29T02:30:38.010Z,-2.37
2023-01-29T02:33:09.695Z,-2.26
2023-01-29T02:35:48.547Z,-2.36
2023-01-29T02:38:36.392Z,-2.19
2023-01-29T02:41:16.345Z,-2.25
2023-01-29T02:43:56.118Z,-2.20
2023-01-29T02:46:45.359Z,-2.13
2023-01-29T02:49:23.331Z,-2.09
2023-01-29T02:52:00.025Z,-2.10
2023-01-29T02:54:39.849Z,-2.05
2023-01-29T02:57:17.730Z,-2.19
2023-01-29T02:59:50.733Z,-1.97
2023-01-29T03:02:26.029Z,-1.87
2023-01-29T03:05:00.940Z,-2.04
2023-01-29T03:07:46.150Z,-1.81
2023-01-29T03:10:33.323Z,-1.86
2023-01-29T03:13:12.686Z,-1.81
2023-01-29T03:15:46.945Z,-1.98
2023-01-29T03:19:14.119Z,-1.88
2023-01-29T03:21:51.417Z,-2.25
2023-01-29T03:24:43.288Z,-1.93
2023-01-29T03:27:31.174Z,-2.19
2023-01-29T03:30:19.028Z,-2.15
2023-01-29T03:32:51.949Z,-2.33
2023-01-29T03:35:36.574Z,-2.17
2023-01-29T03:38:07.384Z,-2.01
2023-01-29T03:40:46.005Z,-2.18
2023-01-29T03:43:33.848Z,-2.06
2023-01-29T03:46:19.119Z,-1.87
2023-01-29T03:48:51.760Z,-1.88
2023-01-29T03:51:30.138Z,-2.04
2023-01-29T03:54:01.394Z,-2.25
2023-01-29T03:56:39.156Z,-1.97
2023-01-29T03:59:38.808Z,-2.35
2023-01-29T04:02:48.910Z,-2.18
2023-01-29T04:05:20.118Z,-2.30
2023-01-29T04:08:05.367Z,-2.08
2023-01-29T04:10:35.836Z,-2.37
2023-01-29T04:13:11.173Z,-2.22
2023-01-29T04:15:46.140Z,-2.44
2023-01-29T04:18:13.227Z,-2.54
2023-01-29T04:21:16.150Z,-2.50
2023-01-29T04:23:43.354Z,-2.46
2023-01-29T04:26:41.262Z,-2.33
2023-01-29T04:29:22.897Z,-2.19
2023-01-29T04:32:08.814Z,-2.65
2023-01-29T04:35:08.847Z,-2.35
2023-01-29T04:37:51.998Z,-2.62
2023-01-29T04:40:37.629Z,-2.12
2023-01-29T04:43:21.785Z,-2.52
2023-01-29T04:46:03.686Z,-2.57
2023-01-29T04:48:58.378Z,-2.50
2023-01-29T04:51:35.737Z,-2.79
2023-01-29T04:54:11.032Z,-2.71
2023-01-29T04:56:55.153Z,-2.51
2023-01-29T04:59:30.351Z,-2.73
2023-01-29T05:01:59.641Z,-2.67
2023-01-29T05:04:27.882Z,-2.57
2023-01-29T05:06:55.920Z,-2.83
2023-01-29T05:09:23.246Z,-2.80
2023-01-29T05:11:50.257Z,-2.66
2023-01-29T05:14:19.724Z,-2.80
2023-01-29T05:16:53.510Z,-2.95
2023-01-29T05:19:20.042Z,-2.71
2023-01-29T05:21:49.274Z,-2.75
2023-01-29T05:24:26.344Z,-2.80
2023-01-29T05:27:13.298Z,-2.72
2023-01-29T05:29:46.619Z,-2.75
2023-01-29T05:32:13.897Z,-2.55
2023-01-29T05:34:40.380Z,-2.29
2023-01-29T05:37:07.089Z,-2.69
2023-01-29T05:39:33.537Z,-2.83
2023-01-29T05:42:00.258Z,-2.95
2023-01-29T05:44:27.388Z,-2.91
2023-01-29T05:46:53.862Z,-2.70
2023-01-29T05:49:20.645Z,-2.72
2023-01-29T05:51:47.119Z,-2.71
2023-01-29T05:54:14.173Z,-2.91
2023-01-29T05:56:40.713Z,-2.89
2023-01-29T05:59:07.436Z,-2.98
2023-01-29T06:01:33.932Z,-2.62
2023-01-29T06:04:00.416Z,-2.64
2023-01-29T06:06:27.019Z,-2.53
2023-01-29T06:08:53.496Z,-2.81
2023-01-29T06:11:20.593Z,-2.81
2023-01-29T06:13:48.143Z,-2.78
2023-01-29T06:16:15.229Z,-2.66
2023-01-29T06:18:42.523Z,-2.55
2023-01-29T06:21:11.754Z,-2.48
2023-01-29T06:23:38.485Z,-2.56
2023-01-29T06:26:11.989Z,-2.53
2023-01-29T06:28:39.106Z,-2.59
2023-01-29T06:33:53.436Z,-2.28
2023-01-29T06:36:19.896Z,-2.32
2023-01-29T06:38:47.311Z,-2.51
2023-01-29T06:41:17.719Z,-2.58
2023-01-29T06:43:45.457Z,-2.42
2023-01-29T06:46:12.007Z,-2.55
2023-01-29T06:48:38.448Z,-2.40
2023-01-29T06:51:06.645Z,-2.46
2023-01-29T06:53:34.582Z,-2.59
2023-01-29T06:56:01.118Z,-2.56
2023-01-29T06:58:27.611Z,-2.52
2023-01-29T07:00:54.164Z,-2.50
2023-01-29T07:03:20.827Z,-2.58
2023-01-29T07:05:52.334Z,-2.46
2023-01-29T07:08:19.511Z,-2.48
2023-01-29T07:10:45.995Z,-2.41
2023-01-29T07:13:12.454Z,-2.33
2023-01-29T07:15:38.922Z,-2.28
2023-01-29T07:18:11.943Z,-2.21
2023-01-29T07:20:40.302Z,-2.23
2023-01-29T07:23:07.398Z,-2.24
2023-01-29T07:25:34.687Z,-2.18
2023-01-29T07:28:02.159Z,-2.01
2023-01-29T07:30:28.852Z,-2.17
2023-01-29T07:32:55.459Z,-2.11
2023-01-29T07:35:22.204Z,-2.15
2023-01-29T07:37:50.251Z,-2.01
2023-01-29T07:40:17.210Z,-2.43
2023-01-29T07:42:44.205Z,-2.33
2023-01-29T07:45:11.642Z,-2.16
2023-01-29T07:47:41.101Z,-2.09
2023-01-29T07:50:07.907Z,-2.41
2023-01-29T07:52:34.753Z,-2.19
2023-01-29T07:55:01.264Z,-2.09
2023-01-29T07:57:27.857Z,-2.13
2023-01-29T07:59:54.369Z,-2.34
2023-01-29T08:02:20.900Z,-2.42
2023-01-29T08:04:47.382Z,-2.23
2023-01-29T08:07:13.905Z,-2.45
2023-01-29T08:09:40.394Z,-2.24
2023-01-29T08:12:07.059Z,-2.26
2023-01-29T08:14:33.497Z,-2.45
2023-01-29T08:16:59.967Z,-2.18
2023-01-29T08:19:27.155Z,-2.16
2023-01-29T08:21:53.646Z,-1.82
2023-01-29T08:24:20.235Z,-1.71
2023-01-29T08:26:46.798Z,-1.88
2023-01-29T08:29:13.492Z,-2.02
2023-01-29T08:31:40.001Z,-2.28
2023-01-29T08:34:06.513Z,-2.21
2023-01-29T08:36:34.472Z,-2.27
2023-01-29T08:39:00.951Z,-2.31
2023-01-29T08:41:27.463Z,-2.02
2023-01-29T08:43:53.992Z,-1.97
2023-01-29T08:46:20.478Z,-2.11
2023-01-29T08:48:46.984Z,-1.95
2023-01-29T08:51:13.669Z,-2.06
2023-01-29T08:53:40.101Z,-2.27
2023-01-29T08:56:06.546Z,-1.64
2023-01-29T08:58:33.065Z,-1.97
2023-01-29T09:01:13.167Z,-1.60
2023-01-29T09:03:41.187Z,-1.67
2023-01-29T09:06:10.652Z,-2.02
2023-01-29T09:08:37.410Z,-1.90
2023-01-29T09:11:03.985Z,-1.70
2023-01-29T09:13:30.596Z,-1.77
2023-01-29T09:16:01.700Z,-1.88
2023-01-29T09:18:29.716Z,-1.91
2023-01-29T09:20:56.184Z,-1.77
2023-01-29T09:23:22.857Z,-1.92
2023-01-29T09:25:49.568Z,-2.19
2023-01-29T09:28:17.653Z,-1.87
2023-01-29T09:30:44.883Z,-1.68
2023-01-29T09:33:11.562Z,-1.55
2023-01-29T09:35:40.981Z,-1.64
2023-01-29T09:38:08.453Z,-1.56
2023-01-29T09:41:23.274Z,-1.55
2023-01-29T09:43:55.174Z,-1.44
2023-01-29T09:46:36.810Z,-1.39
2023-01-29T09:49:14.780Z,-1.83
2023-01-29T09:51:45.895Z,-1.60
2023-01-29T09:54:16.414Z,-1.53
2023-01-29T09:56:46.016Z,-1.78
2023-01-29T09:59:17.297Z,-1.35
2023-01-29T10:02:21.998Z,-1.08
2023-01-29T10:05:13.284Z,-1.27
2023-01-29T10:08:20.614Z,-1.38
2023-01-29T10:11:02.052Z,-0.40
2023-01-29T10:13:48.006Z,-1.53
2023-01-29T10:16:55.741Z,-1.01
2023-01-29T10:19:50.503Z,-0.91
2023-01-29T10:22:35.115Z,-0.89
2023-01-29T10:25:06.745Z,-1.33
2023-01-29T10:27:38.505Z,-1.12
2023-01-29T10:30:37.063Z,-0.76
2023-01-29T10:33:06.832Z,-1.31
2023-01-29T10:35:40.940Z,-1.36
2023-01-29T10:38:33.606Z,-0.93
2023-01-29T10:41:19.151Z,-0.79
2023-01-29T10:44:20.703Z,-0.97
2023-01-29T10:47:07.879Z,-1.04
2023-01-29T10:49:40.213Z,-0.65
2023-01-29T10:52:25.096Z,-0.53
2023-01-29T10:55:12.803Z,-0.65
2023-01-29T10:57:56.438Z,-0.77
2023-01-29T11:00:27.015Z,-0.53
2023-01-29T11:02:53.675Z,-0.38
2023-01-29T11:05:33.180Z,-0.55
2023-01-29T11:08:11.660Z,-0.57
2023-01-29T11:10:44.444Z,-0.61
2023-01-29T11:13:14.972Z,-0.41
2023-01-29T11:33:12.891Z,-1.01
2023-01-29T11:35:39.478Z,-0.63
2023-01-29T11:38:08.479Z,-0.51
2023-01-29T11:40:40.229Z,-0.61
2023-01-29T11:43:20.067Z,-0.98
2023-01-29T11:45:51.437Z,-0.66
2023-01-29T11:48:21.337Z,-0.52
2023-01-29T11:50:53.673Z,-0.23
2023-01-29T11:53:37.439Z,-0.25
2023-01-29T11:56:15.762Z,-0.40
2023-01-29T11:58:43.335Z,0.03
2023-01-29T12:01:10.883Z,-0.11
2023-01-29T12:03:43.814Z,-0.66
2023-01-29T12:06:22.187Z,-0.42
2023-01-29T12:09:01.367Z,-0.31
2023-01-29T12:11:32.966Z,-0.49
2023-01-29T12:14:05.100Z,-0.55
2023-01-29T12:16:50.456Z,-0.32
2023-01-29T12:19:31.262Z,0.15
2023-01-29T12:22:06.603Z,-0.41
2023-01-29T12:24:44.566Z,-0.13
2023-01-29T12:27:31.395Z,0.24
2023-01-29T12:30:20.435Z,0.43
2023-01-29T12:32:59.603Z,0.14
2023-01-29T12:35:35.027Z,0.48
2023-01-29T12:38:13.165Z,-0.10
2023-01-29T12:40:48.780Z,0.03
2023-01-29T12:43:23.917Z,0.44
2023-01-29T12:45:53.888Z,0.41
2023-01-29T12:48:39.523Z,0.48
2023-01-29T12:51:19.379Z,0.45
2023-01-29T12:53:57.267Z,0.50
2023-01-29T12:56:32.612Z,0.17
2023-01-29T12:59:04.727Z,0.32
2023-01-29T13:02:00.182Z,0.28
2023-01-29T13:04:50.409Z,0.62
2023-01-29T13:07:24.750Z,0.20
2023-01-29T13:09:57.212Z,0.42
2023-01-29T13:12:24.492Z,0.53
2023-01-29T13:15:05.640Z,0.68
2023-01-29T13:17:44.550Z,0.70
2023-01-29T13:20:28.035Z,0.87
2023-01-29T13:23:01.089Z,0.60
2023-01-29T13:25:27.726Z,0.70
2023-01-29T13:27:54.413Z,0.82
2023-01-29T13:30:25.095Z,0.76
2023-01-29T13:32:54.312Z,0.73
2023-01-29T13:35:22.886Z,1.17
2023-01-29T13:37:52.641Z,0.81
2023-01-29T13:40:27.705Z,0.73
2023-01-29T13:42:57.310Z,0.87
2023-01-29T13:45:24.896Z,0.28
2023-01-29T13:47:52.988Z,0.21
2023-01-29T13:50:21.870Z,0.32
2023-01-29T13:52:58.843Z,0.27
2023-01-29T13:55:31.450Z,-0.01
2023-01-29T13:58:02.796Z,-0.07
2023-01-29T14:00:35.476Z,-0.03
2023-01-29T14:03:05.217Z,0.22
2023-01-29T14:05:31.863Z,0.36
2023-01-29T14:08:02.161Z,-0.07
2023-01-29T14:10:36.370Z,0.12
2023-01-29T14:13:11.640Z,0.27
2023-01-29T14:15:40.060Z,-0.07
2023-01-29T14:18:12.632Z,-0.13
2023-01-29T14:20:46.265Z,0.07
2023-01-29T14:23:22.627Z,0.11
2023-01-29T14:25:49.481Z,0.20
2023-01-29T14:28:26.918Z,0.13
2023-01-29T14:30:53.671Z,0.31
2023-01-29T14:33:28.004Z,-0.21
2023-01-29T14:35:57.696Z,-0.15
2023-01-29T14:38:27.864Z,-0.08
2023-01-29T14:41:05.859Z,0.03
2023-01-29T14:43:32.540Z,-0.42
2023-01-29T14:46:34.291Z,-0.13
2023-01-29T14:49:01.425Z,-0.18
2023-01-29T14:51:34.443Z,-0.15
2023-01-29T14:54:26.722Z,-0.39
2023-01-29T14:56:58.611Z,-0.28
2023-01-29T14:59:40.102Z,-0.31
2023-01-29T15:02:26.958Z,-0.29
2023-01-29T15:04:59.638Z,-0.25
2023-01-29T15:07:51.328Z,-0.09
2023-01-29T15:10:23.410Z,-0.06
2023-01-29T15:13:01.901Z,-0.56
2023-01-29T15:15:46.289Z,-0.27
2023-01-29T15:18:15.452Z,-0.31
2023-01-29T15:20:43.995Z,-0.38
2023-01-29T15:23:27.576Z,-0.31
2023-01-29T15:25:57.200Z,-0.30
2023-01-29T15:28:24.241Z,-0.45
2023-01-29T15:30:55.448Z,-0.62
2023-01-29T15:33:22.399Z,-0.70
2023-01-29T15:35:51.653Z,-0.85
2023-01-29T15:38:22.487Z,-0.66
2023-01-29T15:40:57.163Z,-0.63
2023-01-29T15:43:26.009Z,-0.83
2023-01-29T15:45:56.474Z,-0.65
2023-01-29T15:48:32.880Z,-0.78
2023-01-29T15:51:00.006Z,-0.87
2023-01-29T15:53:35.011Z,-0.83
2023-01-29T15:56:01.812Z,-0.93
2023-01-29T15:58:32.904Z,-0.87
2023-01-29T16:01:01.993Z,-0.89
2023-01-29T16:03:32.525Z,-0.99
2023-01-29T16:06:00.332Z,-0.94
2023-01-29T16:08:27.935Z,-1.13
2023-01-29T16:11:00.700Z,-1.51
2023-01-29T16:13:33.896Z,-1.08
2023-01-29T16:16:20.234Z,-1.32
2023-01-29T16:18:59.550Z,-1.19
2023-01-29T16:21:36.143Z,-1.25
2023-01-29T16:24:09.645Z,-1.31
2023-01-29T16:26:44.761Z,-1.57
2023-01-29T16:29:14.702Z,-1.39
2023-01-29T16:31:44.483Z,-1.52
2023-01-29T16:34:21.147Z,-1.72
2023-01-29T16:36:49.276Z,-1.50
2023-01-29T16:39:22.824Z,-1.58
2023-01-29T16:42:09.666Z,-1.60
2023-01-29T16:44:40.303Z,-1.58
2023-01-29T16:47:12.991Z,-1.82
2023-01-29T16:49:39.498Z,-1.66
2023-01-29T16:52:32.863Z,-1.83
2023-01-29T16:55:02.559Z,-1.69
2023-01-29T16:57:33.087Z,-1.73
2023-01-29T17:00:03.233Z,-1.71
2023-01-29T17:02:33.380Z,-1.68
2023-01-29T17:05:18.592Z,-1.77
2023-01-29T17:07:46.420Z,-1.84
2023-01-29T17:10:19.129Z,-1.62
2023-01-29T17:12:54.084Z,-1.65
2023-01-29T17:15:46.199Z,-1.64
2023-01-29T17:18:17.814Z,-1.58
2023-01-29T17:20:44.297Z,-1.69
2023-01-29T17:23:10.803Z,-1.56
2023-01-29T17:25:37.814Z,-1.48
2023-01-29T17:28:04.637Z,-1.48
2023-01-29T17:30:34.756Z,-1.55
2023-01-29T17:33:02.858Z,-1.57
2023-01-29T17:35:29.405Z,-1.49
2023-01-29T17:37:55.888Z,-1.52
2023-01-29T17:40:37.034Z,-1.53
2023-01-29T17:43:03.493Z,-1.43
2023-01-29T17:45:30.576Z,-1.52
2023-01-29T17:47:57.049Z,-1.47
2023-01-29T17:50:27.569Z,-1.43
2023-01-29T17:52:54.100Z,-1.54
2023-01-29T17:55:20.711Z,-1.53
2023-01-29T17:57:47.253Z,-1.39
2023-01-29T18:00:22.750Z,-1.34
2023-01-29T18:02:49.371Z,-1.94
2023-01-29T18:05:17.157Z,-1.55
2023-01-29T18:07:45.867Z,-1.47
2023-01-29T18:10:21.401Z,-1.48
2023-01-29T18:12:47.952Z,-1.44
2023-01-29T18:15:15.515Z,-1.43
2023-01-29T18:17:43.217Z,-1.43
2023-01-29T18:20:22.975Z,-1.49
2023-01-29T18:22:49.635Z,-1.52
2023-01-29T18:25:16.607Z,-1.42
2023-01-29T18:27:43.907Z,-1.38
2023-01-29T18:30:11.392Z,-1.42
2023-01-29T18:32:38.074Z,-1.45
2023-01-29T18:35:06.082Z,-1.46
2023-01-29T18:37:33.303Z,-1.53
2023-01-29T18:39:59.878Z,-1.66
2023-01-29T18:42:26.439Z,-1.78
2023-01-29T18:44:52.891Z,-1.72
2023-01-29T18:47:19.484Z,-1.80
2023-01-29T18:49:46.124Z,-1.98
2023-01-29T18:52:12.558Z,-2.08
2023-01-29T18:54:38.955Z,-2.09
2023-01-29T18:57:13.389Z,-2.33
2023-01-29T18:59:51.891Z,-2.35
2023-01-29T19:02:19.406Z,-2.29
2023-01-29T19:04:46.508Z,-2.41
2023-01-29T19:07:14.720Z,-2.37
2023-01-29T19:09:42.154Z,-2.41
2023-01-29T19:12:08.999Z,-2.55
2023-01-29T19:14:35.433Z,-2.67
2023-01-29T19:17:01.919Z,-2.60
2023-01-29T19:19:28.795Z,-2.67
2023-01-29T19:21:55.408Z,-2.77
2023-01-29T19:24:22.381Z,-2.64
2023-01-29T19:26:49.891Z,-2.72
2023-01-29T19:29:17.674Z,-2.69
2023-01-29T19:31:44.215Z,-2.75
2023-01-29T19:34:10.757Z,-2.69
2023-01-29T19:36:37.342Z,-2.87
2023-01-29T19:39:04.624Z,-2.82
2023-01-29T19:41:31.147Z,-2.86
2023-01-29T19:43:57.638Z,-2.87
2023-01-29T19:46:24.163Z,-2.90
2023-01-29T19:48:50.633Z,-2.92
2023-01-29T19:51:17.171Z,-3.03
2023-01-29T19:53:44.164Z,-3.06
2023-01-29T19:56:16.368Z,-3.03
2023-01-29T19:58:43.494Z,-3.06
2023-01-29T20:01:16.190Z,-3.30
2023-01-29T20:03:46.324Z,-3.17
2023-01-29T20:06:15.373Z,-3.33
2023-01-29T20:08:41.837Z,-3.26
2023-01-29T20:11:09.822Z,-3.32
2023-01-29T20:13:36.312Z,-3.34
2023-01-29T20:16:03.908Z,-3.31
2023-01-29T20:18:30.766Z,-3.36
2023-01-29T20:20:57.607Z,-3.40
2023-01-29T20:23:37.111Z,-3.35
2023-01-29T20:26:05.922Z,-3.38
2023-01-29T20:28:32.713Z,-3.32
2023-01-29T20:30:59.268Z,-3.31
2023-01-29T20:33:26.669Z,-3.37
2023-01-29T20:35:57.634Z,-3.34
2023-01-29T20:38:30.147Z,-3.39
2023-01-29T20:41:02.945Z,-3.45
2023-01-29T20:43:29.427Z,-3.55
2023-01-29T20:45:59.495Z,-3.45
2023-01-29T20:48:26.519Z,-3.46
2023-01-29T20:50:54.095Z,-3.58
2023-01-29T20:53:20.587Z,-3.52
2023-01-29T20:55:47.264Z,-3.51
2023-01-29T20:58:13.937Z,-3.68
2023-01-29T21:00:41.351Z,-3.59
2023-01-29T21:03:07.856Z,-3.59
2023-01-29T21:05:34.344Z,-3.63
2023-01-29T21:08:00.869Z,-3.62
2023-01-29T21:10:27.352Z,-3.60
2023-01-29T21:12:54.646Z,-3.70
2023-01-29T21:15:21.301Z,-3.83
2023-01-29T21:17:48.056Z,-3.61
2023-01-29T21:20:14.944Z,-3.68
2023-01-29T21:22:43.868Z,-3.59
2023-01-29T21:25:10.875Z,-3.62
2023-01-29T21:27:37.472Z,-3.71
2023-01-29T21:30:04.522Z,-3.66
2023-01-29T21:32:31.175Z,-3.74
2023-01-29T21:34:57.700Z,-3.85
2023-01-29T21:37:24.187Z,-3.66
2023-01-29T21:39:50.699Z,-3.73
2023-01-29T21:42:36.000Z,-3.59
2023-01-29T21:45:02.569Z,-3.60
2023-01-29T21:47:29.041Z,-3.69
2023-01-29T21:49:55.524Z,-3.74
2023-01-29T21:52:22.151Z,-3.73
2023-01-29T21:54:48.976Z,-3.75
2023-01-29T21:57:16.521Z,-3.62
2023-01-29T21:59:43.506Z,-3.63
2023-01-29T22:02:15.042Z,-3.80
2023-01-29T22:04:42.620Z,-3.96
2023-01-29T22:07:10.781Z,-3.84
2023-01-29T22:09:37.772Z,-3.80
2023-01-29T22:12:06.551Z,-3.71
2023-01-29T22:14:33.268Z,-3.91
2023-01-29T22:16:59.948Z,-3.99
2023-01-29T22:19:26.503Z,-3.70
2023-01-29T22:21:53.233Z,-3.96
2023-01-29T22:24:20.820Z,-3.89
2023-01-29T22:26:49.393Z,-3.88
2023-01-29T22:29:17.024Z,-3.93
2023-01-29T22:31:44.267Z,-3.86
2023-01-29T22:34:11.692Z,-3.94
2023-01-29T22:36:38.944Z,-3.72
2023-01-29T22:39:07.553Z,-3.53
2023-01-29T22:41:34.465Z,-3.80
2023-01-29T22:44:01.145Z,-3.46
2023-01-29T22:46:27.789Z,-3.43
2023-01-29T22:48:54.579Z,-3.38
2023-01-29T22:51:21.223Z,-3.39
2023-01-29T22:53:55.615Z,-3.34
2023-01-29T22:56:25.667Z,-3.31
2023-01-29T22:58:53.602Z,-3.34
2023-01-29T23:17:54.434Z,-4.07
2023-01-29T23:20:21.716Z,-4.05
2023-01-29T23:22:48.843Z,-3.98
2023-01-29T23:25:15.625Z,-3.95
2023-01-29T23:27:42.205Z,-3.91
2023-01-29T23:30:09.405Z,-4.02
2023-01-29T23:32:36.066Z,-3.92
2023-01-29T23:35:02.659Z,-3.96
2023-01-29T23:37:29.195Z,-4.01
2023-01-29T23:39:55.725Z,-3.91
2023-01-29T23:42:22.255Z,-3.92
2023-01-29T23:44:48.753Z,-3.89
2023-01-29T23:47:15.307Z,-3.92
2023-01-29T23:49:41.862Z,-3.88
2023-01-29T23:52:08.395Z,-3.92
2023-01-29T23:54:34.884Z,-4.00
2023-01-29T23:57:01.446Z,-4.06
2023-01-29T23:59:28.973Z,-3.99
